sensor_id;sensor_type;location;lat;lon;timestamp;P1;durP1;ratioP1;P2;durP2;ratioP2
66559;SDS011;53413;49.878;8.142;2023-05-07T00:01:14;5.60;;;2.60;;
66559;SDS011;53413;49.878;8.142;2023-05-07T00:03:40;5.27;;;2.43;;
66559;SDS011;53413;49.878;8.142;2023-05-07T00:06:05;5.68;;;2.70;;
66559;SDS011;53413;49.878;8.142;2023-05-07T00:08:31;5.80;;;2.53;;
66559;SDS011;53413;49.878;8.142;2023-05-07T00:10:56;5.90;;;2.50;;
66559;SDS011;53413;49.878;8.142;2023-05-07T00:13:22;5.73;;;2.43;;
66559;SDS011;53413;49.878;8.142;2023-05-07T00:15:47;5.80;;;2.50;;
66559;SDS011;53413;49.878;8.142;2023-05-07T00:18:12;4.65;;;2.42;;
66559;SDS011;53413;49.878;8.142;2023-05-07T00:20:38;6.20;;;2.72;;
66559;SDS011;53413;49.878;8.142;2023-05-07T00:23:03;8.60;;;2.70;;
66559;SDS011;53413;49.878;8.142;2023-05-07T00:25:28;5.70;;;2.57;;
66559;SDS011;53413;49.878;8.142;2023-05-07T00:27:54;6.67;;;2.03;;
66559;SDS011;53413;49.878;8.142;2023-05-07T00:30:19;5.73;;;2.40;;
66559;SDS011;53413;49.878;8.142;2023-05-07T00:32:44;6.93;;;2.60;;
66559;SDS011;53413;49.878;8.142;2023-05-07T00:35:11;5.45;;;2.50;;
66559;SDS011;53413;49.878;8.142;2023-05-07T00:37:36;6.43;;;2.42;;
66559;SDS011;53413;49.878;8.142;2023-05-07T00:40:01;6.88;;;2.30;;
66559;SDS011;53413;49.878;8.142;2023-05-07T00:42:29;6.40;;;2.27;;
66559;SDS011;53413;49.878;8.142;2023-05-07T00:44:57;6.43;;;2.53;;
66559;SDS011;53413;49.878;8.142;2023-05-07T00:47:22;6.72;;;2.60;;
66559;SDS011;53413;49.878;8.142;2023-05-07T00:49:48;5.73;;;2.63;;
66559;SDS011;53413;49.878;8.142;2023-05-07T00:52:15;9.80;;;2.90;;
66559;SDS011;53413;49.878;8.142;2023-05-07T00:54:42;6.15;;;2.90;;
66559;SDS011;53413;49.878;8.142;2023-05-07T00:57:09;7.03;;;2.80;;
66559;SDS011;53413;49.878;8.142;2023-05-07T00:59:36;7.85;;;2.80;;
66559;SDS011;53413;49.878;8.142;2023-05-07T01:02:01;6.77;;;2.63;;
66559;SDS011;53413;49.878;8.142;2023-05-07T01:04:27;8.27;;;2.90;;
66559;SDS011;53413;49.878;8.142;2023-05-07T01:06:53;6.50;;;2.70;;
66559;SDS011;53413;49.878;8.142;2023-05-07T01:09:21;7.97;;;3.00;;
66559;SDS011;53413;49.878;8.142;2023-05-07T01:11:48;6.65;;;2.80;;
66559;SDS011;53413;49.878;8.142;2023-05-07T01:14:15;8.18;;;2.85;;
66559;SDS011;53413;49.878;8.142;2023-05-07T01:16:41;7.93;;;3.08;;
66559;SDS011;53413;49.878;8.142;2023-05-07T01:19:07;6.00;;;2.70;;
66559;SDS011;53413;49.878;8.142;2023-05-07T01:21:33;6.22;;;2.78;;
66559;SDS011;53413;49.878;8.142;2023-05-07T01:24:02;7.32;;;3.08;;
66559;SDS011;53413;49.878;8.142;2023-05-07T01:26:27;7.53;;;3.30;;
66559;SDS011;53413;49.878;8.142;2023-05-07T01:28:53;6.37;;;3.23;;
66559;SDS011;53413;49.878;8.142;2023-05-07T01:31:18;7.90;;;3.33;;
66559;SDS011;53413;49.878;8.142;2023-05-07T01:33:44;7.68;;;3.40;;
66559;SDS011;53413;49.878;8.142;2023-05-07T01:36:11;6.25;;;3.35;;
66559;SDS011;53413;49.878;8.142;2023-05-07T01:38:38;8.02;;;3.55;;
66559;SDS011;53413;49.878;8.142;2023-05-07T01:41:05;6.07;;;3.17;;
66559;SDS011;53413;49.878;8.142;2023-05-07T01:43:31;7.25;;;3.60;;
66559;SDS011;53413;49.878;8.142;2023-05-07T01:45:57;6.63;;;3.20;;
66559;SDS011;53413;49.878;8.142;2023-05-07T01:48:22;7.43;;;3.55;;
66559;SDS011;53413;49.878;8.142;2023-05-07T01:50:49;8.45;;;4.20;;
66559;SDS011;53413;49.878;8.142;2023-05-07T01:53:16;8.90;;;4.25;;
66559;SDS011;53413;49.878;8.142;2023-05-07T01:55:41;11.07;;;4.83;;
66559;SDS011;53413;49.878;8.142;2023-05-07T01:58:06;8.10;;;4.00;;
66559;SDS011;53413;49.878;8.142;2023-05-07T02:00:32;8.07;;;3.90;;
66559;SDS011;53413;49.878;8.142;2023-05-07T02:02:57;7.97;;;4.28;;
66559;SDS011;53413;49.878;8.142;2023-05-07T02:05:23;7.83;;;4.07;;
66559;SDS011;53413;49.878;8.142;2023-05-07T02:07:48;7.07;;;3.70;;
66559;SDS011;53413;49.878;8.142;2023-05-07T02:10:14;7.70;;;3.60;;
66559;SDS011;53413;49.878;8.142;2023-05-07T02:12:39;7.72;;;3.90;;
66559;SDS011;53413;49.878;8.142;2023-05-07T02:15:04;7.90;;;3.70;;
66559;SDS011;53413;49.878;8.142;2023-05-07T02:17:30;7.77;;;3.83;;
66559;SDS011;53413;49.878;8.142;2023-05-07T02:19:57;8.65;;;3.92;;
66559;SDS011;53413;49.878;8.142;2023-05-07T02:22:23;8.60;;;3.97;;
66559;SDS011;53413;49.878;8.142;2023-05-07T02:24:48;6.37;;;3.70;;
66559;SDS011;53413;49.878;8.142;2023-05-07T02:27:14;7.40;;;4.10;;
66559;SDS011;53413;49.878;8.142;2023-05-07T02:29:39;8.00;;;4.23;;
66559;SDS011;53413;49.878;8.142;2023-05-07T02:32:04;7.03;;;3.90;;
66559;SDS011;53413;49.878;8.142;2023-05-07T02:34:30;7.23;;;3.97;;
66559;SDS011;53413;49.878;8.142;2023-05-07T02:36:55;9.25;;;3.97;;
66559;SDS011;53413;49.878;8.142;2023-05-07T02:39:20;7.55;;;3.95;;
66559;SDS011;53413;49.878;8.142;2023-05-07T02:41:46;7.43;;;3.70;;
66559;SDS011;53413;49.878;8.142;2023-05-07T02:44:11;6.57;;;3.50;;
66559;SDS011;53413;49.878;8.142;2023-05-07T02:46:37;7.10;;;3.60;;
66559;SDS011;53413;49.878;8.142;2023-05-07T02:49:03;6.68;;;3.38;;
66559;SDS011;53413;49.878;8.142;2023-05-07T02:51:29;7.67;;;3.80;;
66559;SDS011;53413;49.878;8.142;2023-05-07T02:53:55;6.65;;;3.70;;
66559;SDS011;53413;49.878;8.142;2023-05-07T02:56:21;7.90;;;4.07;;
66559;SDS011;53413;49.878;8.142;2023-05-07T02:58:46;8.80;;;4.07;;
66559;SDS011;53413;49.878;8.142;2023-05-07T03:01:11;7.45;;;3.58;;
66559;SDS011;53413;49.878;8.142;2023-05-07T03:03:38;8.23;;;3.92;;
66559;SDS011;53413;49.878;8.142;2023-05-07T03:06:04;6.30;;;3.47;;
66559;SDS011;53413;49.878;8.142;2023-05-07T03:08:30;8.30;;;4.00;;
66559;SDS011;53413;49.878;8.142;2023-05-07T03:10:55;7.28;;;3.92;;
66559;SDS011;53413;49.878;8.142;2023-05-07T03:13:21;7.65;;;3.85;;
66559;SDS011;53413;49.878;8.142;2023-05-07T03:15:46;6.33;;;3.73;;
66559;SDS011;53413;49.878;8.142;2023-05-07T03:18:11;7.57;;;3.90;;
66559;SDS011;53413;49.878;8.142;2023-05-07T03:20:37;7.03;;;3.80;;
66559;SDS011;53413;49.878;8.142;2023-05-07T03:23:02;7.47;;;4.50;;
66559;SDS011;53413;49.878;8.142;2023-05-07T03:25:28;7.03;;;3.65;;
66559;SDS011;53413;49.878;8.142;2023-05-07T03:27:55;7.63;;;3.90;;
66559;SDS011;53413;49.878;8.142;2023-05-07T03:30:20;6.78;;;3.83;;
66559;SDS011;53413;49.878;8.142;2023-05-07T03:32:46;7.93;;;4.00;;
66559;SDS011;53413;49.878;8.142;2023-05-07T03:35:11;6.93;;;3.73;;
66559;SDS011;53413;49.878;8.142;2023-05-07T03:37:37;6.97;;;3.40;;
66559;SDS011;53413;49.878;8.142;2023-05-07T03:40:03;7.00;;;3.85;;
66559;SDS011;53413;49.878;8.142;2023-05-07T03:42:29;7.78;;;4.05;;
66559;SDS011;53413;49.878;8.142;2023-05-07T03:44:54;8.33;;;4.20;;
66559;SDS011;53413;49.878;8.142;2023-05-07T03:47:20;8.18;;;4.00;;
66559;SDS011;53413;49.878;8.142;2023-05-07T03:49:45;8.67;;;4.10;;
66559;SDS011;53413;49.878;8.142;2023-05-07T03:52:11;9.03;;;4.50;;
66559;SDS011;53413;49.878;8.142;2023-05-07T03:54:36;8.23;;;4.20;;
66559;SDS011;53413;49.878;8.142;2023-05-07T03:57:02;6.87;;;3.90;;
66559;SDS011;53413;49.878;8.142;2023-05-07T03:59:27;7.25;;;3.88;;
66559;SDS011;53413;49.878;8.142;2023-05-07T04:01:52;8.73;;;4.03;;
66559;SDS011;53413;49.878;8.142;2023-05-07T04:04:18;7.63;;;4.10;;
66559;SDS011;53413;49.878;8.142;2023-05-07T04:06:43;6.63;;;3.80;;
66559;SDS011;53413;49.878;8.142;2023-05-07T04:09:09;8.40;;;3.93;;
66559;SDS011;53413;49.878;8.142;2023-05-07T04:11:35;6.87;;;3.90;;
66559;SDS011;53413;49.878;8.142;2023-05-07T04:14:00;10.00;;;4.13;;
66559;SDS011;53413;49.878;8.142;2023-05-07T04:16:26;6.90;;;3.90;;
66559;SDS011;53413;49.878;8.142;2023-05-07T04:18:51;7.82;;;4.13;;
66559;SDS011;53413;49.878;8.142;2023-05-07T04:21:20;9.03;;;4.57;;
66559;SDS011;53413;49.878;8.142;2023-05-07T04:23:46;8.53;;;4.73;;
66559;SDS011;53413;49.878;8.142;2023-05-07T04:26:13;7.70;;;4.05;;
66559;SDS011;53413;49.878;8.142;2023-05-07T04:28:38;8.93;;;4.07;;
66559;SDS011;53413;49.878;8.142;2023-05-07T04:31:04;7.53;;;3.58;;
66559;SDS011;53413;49.878;8.142;2023-05-07T04:33:30;7.43;;;4.10;;
66559;SDS011;53413;49.878;8.142;2023-05-07T04:35:56;7.68;;;4.28;;
66559;SDS011;53413;49.878;8.142;2023-05-07T04:38:21;6.93;;;3.80;;
66559;SDS011;53413;49.878;8.142;2023-05-07T04:40:48;7.95;;;3.75;;
66559;SDS011;53413;49.878;8.142;2023-05-07T04:43:14;7.73;;;3.90;;
66559;SDS011;53413;49.878;8.142;2023-05-07T04:45:39;7.40;;;4.20;;
66559;SDS011;53413;49.878;8.142;2023-05-07T04:48:06;9.07;;;4.35;;
66559;SDS011;53413;49.878;8.142;2023-05-07T04:50:32;7.50;;;3.90;;
66559;SDS011;53413;49.878;8.142;2023-05-07T04:52:57;7.73;;;4.17;;
66559;SDS011;53413;49.878;8.142;2023-05-07T04:55:23;8.17;;;3.97;;
66559;SDS011;53413;49.878;8.142;2023-05-07T04:57:48;7.22;;;3.70;;
66559;SDS011;53413;49.878;8.142;2023-05-07T05:00:14;7.30;;;3.73;;
66559;SDS011;53413;49.878;8.142;2023-05-07T05:02:40;7.57;;;3.80;;
66559;SDS011;53413;49.878;8.142;2023-05-07T05:05:06;7.43;;;3.60;;
66559;SDS011;53413;49.878;8.142;2023-05-07T05:07:32;6.70;;;3.50;;
66559;SDS011;53413;49.878;8.142;2023-05-07T05:09:57;8.20;;;3.77;;
66559;SDS011;53413;49.878;8.142;2023-05-07T05:12:23;7.20;;;3.23;;
66559;SDS011;53413;49.878;8.142;2023-05-07T05:14:48;6.32;;;3.10;;
66559;SDS011;53413;49.878;8.142;2023-05-07T05:17:13;7.97;;;3.47;;
66559;SDS011;53413;49.878;8.142;2023-05-07T05:19:39;6.23;;;3.10;;
66559;SDS011;53413;49.878;8.142;2023-05-07T05:22:04;7.50;;;3.40;;
66559;SDS011;53413;49.878;8.142;2023-05-07T05:24:30;7.30;;;3.10;;
66559;SDS011;53413;49.878;8.142;2023-05-07T05:26:56;8.68;;;3.40;;
66559;SDS011;53413;49.878;8.142;2023-05-07T05:29:21;6.73;;;2.97;;
66559;SDS011;53413;49.878;8.142;2023-05-07T05:31:47;6.57;;;2.87;;
66559;SDS011;53413;49.878;8.142;2023-05-07T05:34:12;5.97;;;2.80;;
66559;SDS011;53413;49.878;8.142;2023-05-07T05:36:38;6.60;;;2.70;;
66559;SDS011;53413;49.878;8.142;2023-05-07T05:39:03;6.37;;;3.00;;
66559;SDS011;53413;49.878;8.142;2023-05-07T05:41:29;6.30;;;3.13;;
66559;SDS011;53413;49.878;8.142;2023-05-07T05:43:54;8.33;;;3.10;;
66559;SDS011;53413;49.878;8.142;2023-05-07T05:46:19;7.83;;;2.90;;
66559;SDS011;53413;49.878;8.142;2023-05-07T05:48:45;5.90;;;2.90;;
66559;SDS011;53413;49.878;8.142;2023-05-07T05:51:10;6.53;;;3.00;;
66559;SDS011;53413;49.878;8.142;2023-05-07T05:53:36;6.63;;;3.17;;
66559;SDS011;53413;49.878;8.142;2023-05-07T05:56:01;7.38;;;2.75;;
66559;SDS011;53413;49.878;8.142;2023-05-07T05:58:27;7.13;;;2.80;;
66559;SDS011;53413;49.878;8.142;2023-05-07T06:00:52;5.50;;;2.97;;
66559;SDS011;53413;49.878;8.142;2023-05-07T06:03:18;6.77;;;2.80;;
66559;SDS011;53413;49.878;8.142;2023-05-07T06:05:43;6.10;;;2.93;;
66559;SDS011;53413;49.878;8.142;2023-05-07T06:08:09;6.60;;;2.95;;
66559;SDS011;53413;49.878;8.142;2023-05-07T06:10:35;6.15;;;2.78;;
66559;SDS011;53413;49.878;8.142;2023-05-07T06:13:01;5.00;;;2.87;;
66559;SDS011;53413;49.878;8.142;2023-05-07T06:15:27;5.78;;;2.75;;
66559;SDS011;53413;49.878;8.142;2023-05-07T06:17:52;6.40;;;2.80;;
66559;SDS011;53413;49.878;8.142;2023-05-07T06:20:17;5.73;;;2.90;;
66559;SDS011;53413;49.878;8.142;2023-05-07T06:22:42;5.17;;;2.90;;
66559;SDS011;53413;49.878;8.142;2023-05-07T06:25:08;5.33;;;2.90;;
66559;SDS011;53413;49.878;8.142;2023-05-07T06:27:33;6.27;;;3.10;;
66559;SDS011;53413;49.878;8.142;2023-05-07T06:29:59;5.60;;;2.90;;
66559;SDS011;53413;49.878;8.142;2023-05-07T06:32:24;5.22;;;2.80;;
66559;SDS011;53413;49.878;8.142;2023-05-07T06:34:50;5.97;;;2.90;;
66559;SDS011;53413;49.878;8.142;2023-05-07T06:37:15;7.00;;;3.27;;
66559;SDS011;53413;49.878;8.142;2023-05-07T06:39:40;4.60;;;2.80;;
66559;SDS011;53413;49.878;8.142;2023-05-07T06:42:06;6.67;;;2.80;;
66559;SDS011;53413;49.878;8.142;2023-05-07T06:44:31;5.20;;;3.00;;
66559;SDS011;53413;49.878;8.142;2023-05-07T06:46:57;6.28;;;2.92;;
66559;SDS011;53413;49.878;8.142;2023-05-07T06:49:22;6.17;;;2.77;;
66559;SDS011;53413;49.878;8.142;2023-05-07T06:51:48;5.00;;;2.87;;
66559;SDS011;53413;49.878;8.142;2023-05-07T06:54:13;6.50;;;3.03;;
66559;SDS011;53413;49.878;8.142;2023-05-07T06:56:38;5.78;;;2.90;;
66559;SDS011;53413;49.878;8.142;2023-05-07T06:59:04;5.15;;;2.80;;
66559;SDS011;53413;49.878;8.142;2023-05-07T07:01:29;6.37;;;3.23;;
66559;SDS011;53413;49.878;8.142;2023-05-07T07:03:54;4.90;;;2.70;;
66559;SDS011;53413;49.878;8.142;2023-05-07T07:06:20;6.00;;;3.10;;
66559;SDS011;53413;49.878;8.142;2023-05-07T07:08:45;5.43;;;3.07;;
66559;SDS011;53413;49.878;8.142;2023-05-07T07:11:11;6.13;;;3.10;;
66559;SDS011;53413;49.878;8.142;2023-05-07T07:13:36;8.50;;;3.03;;
66559;SDS011;53413;49.878;8.142;2023-05-07T07:16:02;6.10;;;3.17;;
66559;SDS011;53413;49.878;8.142;2023-05-07T07:18:27;6.45;;;3.30;;
66559;SDS011;53413;49.878;8.142;2023-05-07T07:20:53;5.83;;;3.10;;
66559;SDS011;53413;49.878;8.142;2023-05-07T07:23:18;6.67;;;3.33;;
66559;SDS011;53413;49.878;8.142;2023-05-07T07:25:44;7.47;;;3.20;;
66559;SDS011;53413;49.878;8.142;2023-05-07T07:28:09;6.90;;;3.10;;
66559;SDS011;53413;49.878;8.142;2023-05-07T07:30:36;5.47;;;3.10;;
66559;SDS011;53413;49.878;8.142;2023-05-07T07:33:02;6.23;;;2.80;;
66559;SDS011;53413;49.878;8.142;2023-05-07T07:35:31;6.15;;;3.08;;
66559;SDS011;53413;49.878;8.142;2023-05-07T07:37:57;5.93;;;2.83;;
66559;SDS011;53413;49.878;8.142;2023-05-07T07:40:22;5.03;;;3.00;;
66559;SDS011;53413;49.878;8.142;2023-05-07T07:42:48;5.67;;;3.20;;
66559;SDS011;53413;49.878;8.142;2023-05-07T07:45:13;7.05;;;3.38;;
66559;SDS011;53413;49.878;8.142;2023-05-07T07:47:39;6.93;;;3.13;;
66559;SDS011;53413;49.878;8.142;2023-05-07T07:50:05;7.00;;;3.00;;
66559;SDS011;53413;49.878;8.142;2023-05-07T07:52:31;6.55;;;3.03;;
66559;SDS011;53413;49.878;8.142;2023-05-07T07:54:57;6.40;;;3.42;;
66559;SDS011;53413;49.878;8.142;2023-05-07T07:57:22;6.17;;;3.00;;
66559;SDS011;53413;49.878;8.142;2023-05-07T07:59:48;6.43;;;3.30;;
66559;SDS011;53413;49.878;8.142;2023-05-07T08:02:14;4.90;;;2.90;;
66559;SDS011;53413;49.878;8.142;2023-05-07T08:04:39;6.00;;;3.07;;
66559;SDS011;53413;49.878;8.142;2023-05-07T08:07:05;6.57;;;3.27;;
66559;SDS011;53413;49.878;8.142;2023-05-07T08:09:30;6.35;;;3.10;;
66559;SDS011;53413;49.878;8.142;2023-05-07T08:11:56;5.30;;;3.20;;
66559;SDS011;53413;49.878;8.142;2023-05-07T08:14:21;6.30;;;3.53;;
66559;SDS011;53413;49.878;8.142;2023-05-07T08:16:47;5.33;;;3.10;;
66559;SDS011;53413;49.878;8.142;2023-05-07T08:19:12;5.90;;;3.40;;
66559;SDS011;53413;49.878;8.142;2023-05-07T08:21:38;6.03;;;3.00;;
66559;SDS011;53413;49.878;8.142;2023-05-07T08:24:04;5.70;;;3.00;;
66559;SDS011;53413;49.878;8.142;2023-05-07T08:26:30;5.13;;;3.10;;
66559;SDS011;53413;49.878;8.142;2023-05-07T08:28:55;5.37;;;3.20;;
66559;SDS011;53413;49.878;8.142;2023-05-07T08:31:20;5.40;;;3.13;;
66559;SDS011;53413;49.878;8.142;2023-05-07T08:33:46;5.20;;;3.20;;
66559;SDS011;53413;49.878;8.142;2023-05-07T08:36:11;5.43;;;3.40;;
66559;SDS011;53413;49.878;8.142;2023-05-07T08:38:36;5.00;;;3.10;;
66559;SDS011;53413;49.878;8.142;2023-05-07T08:41:02;5.60;;;3.22;;
66559;SDS011;53413;49.878;8.142;2023-05-07T08:43:27;7.00;;;3.20;;
66559;SDS011;53413;49.878;8.142;2023-05-07T08:45:56;5.97;;;3.40;;
66559;SDS011;53413;49.878;8.142;2023-05-07T08:48:26;6.73;;;3.23;;
66559;SDS011;53413;49.878;8.142;2023-05-07T08:50:54;5.90;;;3.50;;
66559;SDS011;53413;49.878;8.142;2023-05-07T08:53:20;6.10;;;3.30;;
66559;SDS011;53413;49.878;8.142;2023-05-07T08:55:45;6.60;;;3.60;;
66559;SDS011;53413;49.878;8.142;2023-05-07T08:58:12;6.82;;;3.42;;
66559;SDS011;53413;49.878;8.142;2023-05-07T09:00:38;6.77;;;3.67;;
66559;SDS011;53413;49.878;8.142;2023-05-07T09:03:05;5.88;;;3.40;;
66559;SDS011;53413;49.878;8.142;2023-05-07T09:05:30;5.30;;;3.50;;
66559;SDS011;53413;49.878;8.142;2023-05-07T09:07:58;5.73;;;3.47;;
66559;SDS011;53413;49.878;8.142;2023-05-07T09:10:25;6.25;;;3.63;;
66559;SDS011;53413;49.878;8.142;2023-05-07T09:12:50;4.85;;;3.35;;
66559;SDS011;53413;49.878;8.142;2023-05-07T09:15:16;6.17;;;3.80;;
66559;SDS011;53413;49.878;8.142;2023-05-07T09:17:42;5.63;;;3.53;;
66559;SDS011;53413;49.878;8.142;2023-05-07T09:20:08;5.93;;;3.75;;
66559;SDS011;53413;49.878;8.142;2023-05-07T09:22:36;6.32;;;3.53;;
66559;SDS011;53413;49.878;8.142;2023-05-07T09:25:02;6.40;;;3.97;;
66559;SDS011;53413;49.878;8.142;2023-05-07T09:27:27;5.93;;;3.70;;
66559;SDS011;53413;49.878;8.142;2023-05-07T09:29:53;6.27;;;3.80;;
66559;SDS011;53413;49.878;8.142;2023-05-07T09:32:18;6.40;;;3.83;;
66559;SDS011;53413;49.878;8.142;2023-05-07T09:34:43;6.10;;;3.72;;
66559;SDS011;53413;49.878;8.142;2023-05-07T09:37:10;6.18;;;3.67;;
66559;SDS011;53413;49.878;8.142;2023-05-07T09:39:41;5.43;;;3.40;;
66559;SDS011;53413;49.878;8.142;2023-05-07T09:42:16;5.93;;;4.10;;
66559;SDS011;53413;49.878;8.142;2023-05-07T09:44:48;6.47;;;4.03;;
66559;SDS011;53413;49.878;8.142;2023-05-07T09:47:15;5.83;;;3.90;;
66559;SDS011;53413;49.878;8.142;2023-05-07T09:49:44;5.50;;;3.80;;
66559;SDS011;53413;49.878;8.142;2023-05-07T09:52:13;6.00;;;3.90;;
66559;SDS011;53413;49.878;8.142;2023-05-07T09:54:39;6.25;;;3.92;;
66559;SDS011;53413;49.878;8.142;2023-05-07T09:57:07;5.63;;;4.07;;
66559;SDS011;53413;49.878;8.142;2023-05-07T09:59:38;7.00;;;3.77;;
66559;SDS011;53413;49.878;8.142;2023-05-07T10:02:07;5.97;;;4.25;;
66559;SDS011;53413;49.878;8.142;2023-05-07T10:04:35;5.97;;;3.92;;
66559;SDS011;53413;49.878;8.142;2023-05-07T10:07:00;6.00;;;3.90;;
66559;SDS011;53413;49.878;8.142;2023-05-07T10:09:28;5.78;;;4.05;;
66559;SDS011;53413;49.878;8.142;2023-05-07T10:11:54;6.18;;;4.00;;
66559;SDS011;53413;49.878;8.142;2023-05-07T10:14:20;6.13;;;4.07;;
66559;SDS011;53413;49.878;8.142;2023-05-07T10:16:46;5.70;;;4.20;;
66559;SDS011;53413;49.878;8.142;2023-05-07T10:19:12;6.25;;;4.10;;
66559;SDS011;53413;49.878;8.142;2023-05-07T10:21:42;5.63;;;4.10;;
66559;SDS011;53413;49.878;8.142;2023-05-07T10:24:16;5.75;;;4.10;;
66559;SDS011;53413;49.878;8.142;2023-05-07T10:26:50;5.43;;;3.90;;
66559;SDS011;53413;49.878;8.142;2023-05-07T10:29:25;5.40;;;3.53;;
66559;SDS011;53413;49.878;8.142;2023-05-07T10:32:06;6.50;;;3.65;;
66559;SDS011;53413;49.878;8.142;2023-05-07T10:34:35;5.47;;;3.67;;
66559;SDS011;53413;49.878;8.142;2023-05-07T10:37:04;5.40;;;4.00;;
66559;SDS011;53413;49.878;8.142;2023-05-07T10:39:30;6.63;;;3.90;;
66559;SDS011;53413;49.878;8.142;2023-05-07T10:41:56;5.90;;;3.83;;
66559;SDS011;53413;49.878;8.142;2023-05-07T10:44:32;6.00;;;3.90;;
66559;SDS011;53413;49.878;8.142;2023-05-07T10:47:30;5.30;;;3.70;;
66559;SDS011;53413;49.878;8.142;2023-05-07T10:52:15;5.10;;;3.60;;
66559;SDS011;53413;49.878;8.142;2023-05-07T10:54:42;6.22;;;3.63;;
66559;SDS011;53413;49.878;8.142;2023-05-07T11:00:40;5.10;;;3.53;;
66559;SDS011;53413;49.878;8.142;2023-05-07T11:05:28;5.88;;;3.40;;
66559;SDS011;53413;49.878;8.142;2023-05-07T11:08:02;6.57;;;3.65;;
66559;SDS011;53413;49.878;8.142;2023-05-07T11:10:47;5.93;;;3.63;;
66559;SDS011;53413;49.878;8.142;2023-05-07T11:16:24;5.53;;;3.78;;
66559;SDS011;53413;49.878;8.142;2023-05-07T11:18:51;5.95;;;3.40;;
66559;SDS011;53413;49.878;8.142;2023-05-07T11:24:19;6.22;;;3.50;;
66559;SDS011;53413;49.878;8.142;2023-05-07T11:26:49;5.43;;;3.60;;
66559;SDS011;53413;49.878;8.142;2023-05-07T11:29:19;5.40;;;3.60;;
66559;SDS011;53413;49.878;8.142;2023-05-07T11:31:48;6.20;;;3.60;;
66559;SDS011;53413;49.878;8.142;2023-05-07T11:34:24;5.28;;;3.33;;
66559;SDS011;53413;49.878;8.142;2023-05-07T11:36:51;6.05;;;3.60;;
66559;SDS011;53413;49.878;8.142;2023-05-07T11:39:27;6.20;;;3.70;;
66559;SDS011;53413;49.878;8.142;2023-05-07T11:41:53;6.05;;;3.65;;
66559;SDS011;53413;49.878;8.142;2023-05-07T11:44:19;5.78;;;3.58;;
66559;SDS011;53413;49.878;8.142;2023-05-07T11:46:44;5.28;;;3.40;;
66559;SDS011;53413;49.878;8.142;2023-05-07T11:49:10;5.23;;;3.50;;
66559;SDS011;53413;49.878;8.142;2023-05-07T11:51:35;5.10;;;3.53;;
66559;SDS011;53413;49.878;8.142;2023-05-07T11:54:03;6.40;;;3.50;;
66559;SDS011;53413;49.878;8.142;2023-05-07T11:56:29;4.90;;;3.30;;
66559;SDS011;53413;49.878;8.142;2023-05-07T11:58:54;6.27;;;4.10;;
66559;SDS011;53413;49.878;8.142;2023-05-07T12:01:20;5.63;;;3.10;;
66559;SDS011;53413;49.878;8.142;2023-05-07T12:03:45;5.18;;;3.33;;
66559;SDS011;53413;49.878;8.142;2023-05-07T12:06:11;5.17;;;3.03;;
66559;SDS011;53413;49.878;8.142;2023-05-07T12:08:39;5.32;;;3.20;;
66559;SDS011;53413;49.878;8.142;2023-05-07T12:11:24;4.93;;;3.00;;
66559;SDS011;53413;49.878;8.142;2023-05-07T12:13:50;5.07;;;3.22;;
66559;SDS011;53413;49.878;8.142;2023-05-07T12:16:16;5.20;;;3.10;;
66559;SDS011;53413;49.878;8.142;2023-05-07T12:18:42;5.07;;;3.35;;
66559;SDS011;53413;49.878;8.142;2023-05-07T12:21:09;5.28;;;2.90;;
66559;SDS011;53413;49.878;8.142;2023-05-07T12:23:36;4.80;;;2.90;;
66559;SDS011;53413;49.878;8.142;2023-05-07T12:26:02;5.50;;;2.83;;
66559;SDS011;53413;49.878;8.142;2023-05-07T12:28:28;5.80;;;3.30;;
66559;SDS011;53413;49.878;8.142;2023-05-07T12:30:53;5.47;;;3.00;;
66559;SDS011;53413;49.878;8.142;2023-05-07T12:33:23;5.32;;;3.10;;
66559;SDS011;53413;49.878;8.142;2023-05-07T12:35:50;6.03;;;3.25;;
66559;SDS011;53413;49.878;8.142;2023-05-07T12:38:16;4.63;;;3.03;;
66559;SDS011;53413;49.878;8.142;2023-05-07T12:40:46;5.28;;;3.30;;
66559;SDS011;53413;49.878;8.142;2023-05-07T12:43:24;4.78;;;2.90;;
66559;SDS011;53413;49.878;8.142;2023-05-07T12:45:51;4.85;;;3.08;;
66559;SDS011;53413;49.878;8.142;2023-05-07T12:48:20;4.50;;;2.70;;
66559;SDS011;53413;49.878;8.142;2023-05-07T12:50:49;6.78;;;3.10;;
66559;SDS011;53413;49.878;8.142;2023-05-07T12:53:16;5.95;;;2.90;;
66559;SDS011;53413;49.878;8.142;2023-05-07T12:55:43;5.17;;;2.60;;
66559;SDS011;53413;49.878;8.142;2023-05-07T12:58:16;4.25;;;2.65;;
66559;SDS011;53413;49.878;8.142;2023-05-07T13:00:43;5.20;;;2.88;;
66559;SDS011;53413;49.878;8.142;2023-05-07T13:03:08;5.00;;;2.80;;
66559;SDS011;53413;49.878;8.142;2023-05-07T13:05:34;6.28;;;2.60;;
66559;SDS011;53413;49.878;8.142;2023-05-07T13:08:00;4.67;;;2.80;;
66559;SDS011;53413;49.878;8.142;2023-05-07T13:10:26;7.53;;;4.20;;
66559;SDS011;53413;49.878;8.142;2023-05-07T13:12:52;5.20;;;3.30;;
66559;SDS011;53413;49.878;8.142;2023-05-07T13:15:17;4.10;;;2.67;;
66559;SDS011;53413;49.878;8.142;2023-05-07T13:17:43;5.60;;;2.80;;
66559;SDS011;53413;49.878;8.142;2023-05-07T13:20:09;5.27;;;3.10;;
66559;SDS011;53413;49.878;8.142;2023-05-07T13:22:35;4.43;;;2.83;;
66559;SDS011;53413;49.878;8.142;2023-05-07T13:25:01;4.73;;;2.67;;
66559;SDS011;53413;49.878;8.142;2023-05-07T13:27:26;5.30;;;2.70;;
66559;SDS011;53413;49.878;8.142;2023-05-07T13:29:51;5.35;;;2.78;;
66559;SDS011;53413;49.878;8.142;2023-05-07T13:32:17;5.47;;;2.93;;
66559;SDS011;53413;49.878;8.142;2023-05-07T13:34:42;4.87;;;3.00;;
66559;SDS011;53413;49.878;8.142;2023-05-07T13:37:07;4.83;;;2.43;;
66559;SDS011;53413;49.878;8.142;2023-05-07T13:39:33;4.37;;;2.63;;
66559;SDS011;53413;49.878;8.142;2023-05-07T13:41:58;4.15;;;2.38;;
66559;SDS011;53413;49.878;8.142;2023-05-07T13:44:24;4.50;;;2.47;;
66559;SDS011;53413;49.878;8.142;2023-05-07T13:46:49;4.40;;;2.57;;
66559;SDS011;53413;49.878;8.142;2023-05-07T13:49:15;5.30;;;2.67;;
66559;SDS011;53413;49.878;8.142;2023-05-07T13:51:40;4.67;;;2.50;;
66559;SDS011;53413;49.878;8.142;2023-05-07T13:54:05;3.70;;;2.30;;
66559;SDS011;53413;49.878;8.142;2023-05-07T13:56:31;6.27;;;2.60;;
66559;SDS011;53413;49.878;8.142;2023-05-07T13:58:57;5.20;;;2.40;;
66559;SDS011;53413;49.878;8.142;2023-05-07T14:01:23;5.33;;;2.50;;
66559;SDS011;53413;49.878;8.142;2023-05-07T14:03:48;4.60;;;2.30;;
66559;SDS011;53413;49.878;8.142;2023-05-07T14:06:14;4.20;;;2.30;;
66559;SDS011;53413;49.878;8.142;2023-05-07T14:08:39;5.27;;;2.30;;
66559;SDS011;53413;49.878;8.142;2023-05-07T14:11:04;5.53;;;2.40;;
66559;SDS011;53413;49.878;8.142;2023-05-07T14:13:30;4.90;;;2.42;;
66559;SDS011;53413;49.878;8.142;2023-05-07T14:15:56;5.70;;;2.40;;
66559;SDS011;53413;49.878;8.142;2023-05-07T14:18:22;4.65;;;2.35;;
66559;SDS011;53413;49.878;8.142;2023-05-07T14:20:47;4.47;;;2.30;;
66559;SDS011;53413;49.878;8.142;2023-05-07T14:23:13;4.75;;;2.35;;
66559;SDS011;53413;49.878;8.142;2023-05-07T14:25:39;3.95;;;2.28;;
66559;SDS011;53413;49.878;8.142;2023-05-07T14:28:05;4.60;;;2.40;;
66559;SDS011;53413;49.878;8.142;2023-05-07T14:30:31;4.72;;;2.30;;
66559;SDS011;53413;49.878;8.142;2023-05-07T14:32:56;4.17;;;2.10;;
66559;SDS011;53413;49.878;8.142;2023-05-07T14:35:22;4.97;;;2.37;;
66559;SDS011;53413;49.878;8.142;2023-05-07T14:37:48;4.00;;;2.22;;
66559;SDS011;53413;49.878;8.142;2023-05-07T14:40:13;5.53;;;2.70;;
66559;SDS011;53413;49.878;8.142;2023-05-07T14:42:39;4.47;;;2.40;;
66559;SDS011;53413;49.878;8.142;2023-05-07T14:45:05;4.20;;;2.65;;
66559;SDS011;53413;49.878;8.142;2023-05-07T14:47:31;4.17;;;2.70;;
66559;SDS011;53413;49.878;8.142;2023-05-07T14:49:56;5.15;;;2.67;;
66559;SDS011;53413;49.878;8.142;2023-05-07T14:52:23;4.68;;;2.80;;
66559;SDS011;53413;49.878;8.142;2023-05-07T14:54:48;7.85;;;2.70;;
66559;SDS011;53413;49.878;8.142;2023-05-07T14:57:14;5.37;;;2.57;;